sensor_id;sensor_type;location;lat;lon;timestamp;P1;durP1;ratioP1;P2;durP2;ratioP2
57313;SDS011;53202;50.976;18.216;2023-02-13T00:08:48;84.70;;;33.70;;
57313;SDS011;53202;50.976;18.216;2023-02-13T00:18:33;76.40;;;33.80;;
57313;SDS011;53202;50.976;18.216;2023-02-13T00:28:22;88.90;;;26.40;;
57313;SDS011;53202;50.976;18.216;2023-02-13T00:38:06;42.00;;;26.70;;
57313;SDS011;53202;50.976;18.216;2023-02-13T00:47:49;57.20;;;29.30;;
57313;SDS011;53202;50.976;18.216;2023-02-13T00:57:33;64.20;;;31.40;;
57313;SDS011;53202;50.976;18.216;2023-02-13T01:07:17;69.30;;;22.80;;
57313;SDS011;53202;50.976;18.216;2023-02-13T01:17:00;94.50;;;33.50;;
57313;SDS011;53202;50.976;18.216;2023-02-13T01:26:43;103.30;;;31.50;;
57313;SDS011;53202;50.976;18.216;2023-02-13T01:36:29;58.90;;;30.60;;
57313;SDS011;53202;50.976;18.216;2023-02-13T01:46:22;88.80;;;26.00;;
57313;SDS011;53202;50.976;18.216;2023-02-13T01:56:17;75.80;;;29.90;;
57313;SDS011;53202;50.976;18.216;2023-02-13T02:06:10;116.30;;;39.30;;
57313;SDS011;53202;50.976;18.216;2023-02-13T02:16:02;94.00;;;32.80;;
57313;SDS011;53202;50.976;18.216;2023-02-13T02:26:12;67.20;;;30.80;;
57313;SDS011;53202;50.976;18.216;2023-02-13T02:36:49;65.80;;;30.50;;
57313;SDS011;53202;50.976;18.216;2023-02-13T02:47:23;68.70;;;37.10;;
57313;SDS011;53202;50.976;18.216;2023-02-13T02:57:44;92.60;;;37.40;;
57313;SDS011;53202;50.976;18.216;2023-02-13T03:08:27;97.90;;;36.80;;
57313;SDS011;53202;50.976;18.216;2023-02-13T03:18:56;64.70;;;36.20;;
57313;SDS011;53202;50.976;18.216;2023-02-13T03:30:12;72.80;;;35.00;;
57313;SDS011;53202;50.976;18.216;2023-02-13T03:40:49;95.00;;;31.40;;
57313;SDS011;53202;50.976;18.216;2023-02-13T03:51:23;44.70;;;27.40;;
57313;SDS011;53202;50.976;18.216;2023-02-13T04:02:21;47.70;;;26.10;;
57313;SDS011;53202;50.976;18.216;2023-02-13T04:12:15;51.50;;;27.30;;
57313;SDS011;53202;50.976;18.216;2023-02-13T04:22:05;45.20;;;19.60;;
57313;SDS011;53202;50.976;18.216;2023-02-13T04:31:49;49.40;;;26.90;;
57313;SDS011;53202;50.976;18.216;2023-02-13T04:41:33;37.50;;;23.10;;
57313;SDS011;53202;50.976;18.216;2023-02-13T04:51:16;48.40;;;21.00;;
57313;SDS011;53202;50.976;18.216;2023-02-13T05:01:00;53.50;;;22.40;;
57313;SDS011;53202;50.976;18.216;2023-02-13T05:10:43;39.20;;;21.60;;
57313;SDS011;53202;50.976;18.216;2023-02-13T05:20:28;50.00;;;24.60;;
57313;SDS011;53202;50.976;18.216;2023-02-13T05:30:26;32.90;;;19.30;;
57313;SDS011;53202;50.976;18.216;2023-02-13T05:40:12;38.90;;;19.90;;
57313;SDS011;53202;50.976;18.216;2023-02-13T05:49:56;48.10;;;20.50;;
57313;SDS011;53202;50.976;18.216;2023-02-13T05:59:39;53.00;;;27.80;;
57313;SDS011;53202;50.976;18.216;2023-02-13T06:09:23;43.20;;;26.90;;
57313;SDS011;53202;50.976;18.216;2023-02-13T06:19:07;63.90;;;31.60;;
57313;SDS011;53202;50.976;18.216;2023-02-13T06:21:33;75.10;;;36.90;;
57313;SDS011;53202;50.976;18.216;2023-02-13T06:31:20;48.10;;;26.80;;
57313;SDS011;53202;50.976;18.216;2023-02-13T06:41:04;83.30;;;38.70;;
57313;SDS011;53202;50.976;18.216;2023-02-13T06:50:48;91.20;;;38.90;;
57313;SDS011;53202;50.976;18.216;2023-02-13T07:00:35;180.10;;;68.20;;
57313;SDS011;53202;50.976;18.216;2023-02-13T07:10:20;63.60;;;39.00;;
57313;SDS011;53202;50.976;18.216;2023-02-13T07:20:06;110.10;;;59.70;;
57313;SDS011;53202;50.976;18.216;2023-02-13T07:22:32;153.00;;;82.90;;
57313;SDS011;53202;50.976;18.216;2023-02-13T07:32:20;292.70;;;106.40;;
57313;SDS011;53202;50.976;18.216;2023-02-13T07:42:05;79.40;;;48.30;;
57313;SDS011;53202;50.976;18.216;2023-02-13T07:51:50;50.60;;;26.80;;
57313;SDS011;53202;50.976;18.216;2023-02-13T08:01:35;36.10;;;21.80;;
57313;SDS011;53202;50.976;18.216;2023-02-13T08:11:38;20.20;;;15.50;;
57313;SDS011;53202;50.976;18.216;2023-02-13T08:21:33;32.40;;;19.50;;
57313;SDS011;53202;50.976;18.216;2023-02-13T08:31:18;34.00;;;17.30;;
57313;SDS011;53202;50.976;18.216;2023-02-13T08:41:01;157.60;;;17.60;;
57313;SDS011;53202;50.976;18.216;2023-02-13T08:50:49;38.40;;;23.50;;
57313;SDS011;53202;50.976;18.216;2023-02-13T09:00:32;35.70;;;25.90;;
57313;SDS011;53202;50.976;18.216;2023-02-13T09:10:16;57.10;;;28.90;;
57313;SDS011;53202;50.976;18.216;2023-02-13T09:20:00;76.30;;;27.70;;
57313;SDS011;53202;50.976;18.216;2023-02-13T09:29:44;71.70;;;29.90;;
57313;SDS011;53202;50.976;18.216;2023-02-13T09:39:28;106.60;;;45.70;;
57313;SDS011;53202;50.976;18.216;2023-02-13T09:49:48;96.10;;;40.90;;
57313;SDS011;53202;50.976;18.216;2023-02-13T10:20:47;57.70;;;31.90;;
57313;SDS011;53202;50.976;18.216;2023-02-13T10:28:26;122.50;;;54.30;;
57313;SDS011;53202;50.976;18.216;2023-02-13T10:39:04;49.30;;;29.70;;
57313;SDS011;53202;50.976;18.216;2023-02-13T10:41:54;44.60;;;29.60;;
57313;SDS011;53202;50.976;18.216;2023-02-13T10:52:21;24.30;;;21.50;;
57313;SDS011;53202;50.976;18.216;2023-02-13T11:03:01;19.20;;;17.10;;
57313;SDS011;53202;50.976;18.216;2023-02-13T11:30:46;22.70;;;9.30;;
57313;SDS011;53202;50.976;18.216;2023-02-13T11:40:49;11.20;;;10.00;;
57313;SDS011;53202;50.976;18.216;2023-02-13T11:50:51;22.60;;;11.90;;
57313;SDS011;53202;50.976;18.216;2023-02-13T12:01:06;14.60;;;10.30;;
57313;SDS011;53202;50.976;18.216;2023-02-13T12:11:16;11.30;;;6.80;;
57313;SDS011;53202;50.976;18.216;2023-02-13T12:31:42;12.10;;;9.90;;
57313;SDS011;53202;50.976;18.216;2023-02-13T12:52:51;9.30;;;7.20;;
57313;SDS011;53202;50.976;18.216;2023-02-13T13:03:26;14.00;;;8.50;;
57313;SDS011;53202;50.976;18.216;2023-02-13T13:14:32;12.60;;;8.20;;
57313;SDS011;53202;50.976;18.216;2023-02-13T13:35:25;18.00;;;13.40;;
57313;SDS011;53202;50.976;18.216;2023-02-13T13:45:29;16.00;;;14.40;;
57313;SDS011;53202;50.976;18.216;2023-02-13T14:06:05;11.00;;;10.00;;
57313;SDS011;53202;50.976;18.216;2023-02-13T14:26:41;20.60;;;11.20;;
57313;SDS011;53202;50.976;18.216;2023-02-13T14:37:13;10.10;;;8.50;;
57313;SDS011;53202;50.976;18.216;2023-02-13T14:47:30;10.60;;;9.50;;
57313;SDS011;53202;50.976;18.216;2023-02-13T14:57:27;9.90;;;7.80;;
57313;SDS011;53202;50.976;18.216;2023-02-13T15:07:34;9.50;;;7.20;;
57313;SDS011;53202;50.976;18.216;2023-02-13T15:17:26;14.70;;;11.40;;
57313;SDS011;53202;50.976;18.216;2023-02-13T15:33:55;15.70;;;10.50;;
57313;SDS011;53202;50.976;18.216;2023-02-13T15:43:52;15.70;;;11.60;;
57313;SDS011;53202;50.976;18.216;2023-02-13T15:53:54;34.70;;;19.30;;
57313;SDS011;53202;50.976;18.216;2023-02-13T16:03:40;20.60;;;12.50;;
57313;SDS011;53202;50.976;18.216;2023-02-13T16:13:39;32.10;;;15.40;;
57313;SDS011;53202;50.976;18.216;2023-02-13T16:23:25;62.90;;;23.30;;
57313;SDS011;53202;50.976;18.216;2023-02-13T16:33:22;29.00;;;18.30;;
57313;SDS011;53202;50.976;18.216;2023-02-13T16:53:35;20.40;;;13.50;;
57313;SDS011;53202;50.976;18.216;2023-02-13T17:03:20;32.00;;;19.30;;
57313;SDS011;53202;50.976;18.216;2023-02-13T17:13:10;42.10;;;27.10;;
57313;SDS011;53202;50.976;18.216;2023-02-13T17:23:02;39.40;;;19.50;;
57313;SDS011;53202;50.976;18.216;2023-02-13T17:32:56;26.40;;;18.60;;
57313;SDS011;53202;50.976;18.216;2023-02-13T17:42:45;23.80;;;14.60;;
57313;SDS011;53202;50.976;18.216;2023-02-13T17:52:32;20.70;;;14.20;;
57313;SDS011;53202;50.976;18.216;2023-02-13T18:02:17;24.40;;;15.40;;
57313;SDS011;53202;50.976;18.216;2023-02-13T18:12:04;22.50;;;10.70;;
57313;SDS011;53202;50.976;18.216;2023-02-13T18:21:50;32.50;;;19.30;;
57313;SDS011;53202;50.976;18.216;2023-02-13T18:31:33;13.20;;;8.40;;
57313;SDS011;53202;50.976;18.216;2023-02-13T18:41:19;33.10;;;13.50;;
57313;SDS011;53202;50.976;18.216;2023-02-13T18:51:03;19.80;;;14.80;;
57313;SDS011;53202;50.976;18.216;2023-02-13T19:00:51;20.10;;;16.10;;
57313;SDS011;53202;50.976;18.216;2023-02-13T19:10:34;40.70;;;19.80;;
57313;SDS011;53202;50.976;18.216;2023-02-13T19:20:21;32.20;;;21.90;;
57313;SDS011;53202;50.976;18.216;2023-02-13T19:30:06;44.10;;;25.90;;
57313;SDS011;53202;50.976;18.216;2023-02-13T19:39:52;41.40;;;28.10;;
57313;SDS011;53202;50.976;18.216;2023-02-13T19:49:35;50.90;;;30.00;;
57313;SDS011;53202;50.976;18.216;2023-02-13T19:59:25;44.70;;;24.80;;
57313;SDS011;53202;50.976;18.216;2023-02-13T20:09:10;48.20;;;30.90;;
57313;SDS011;53202;50.976;18.216;2023-02-13T20:19:00;65.60;;;35.30;;
57313;SDS011;53202;50.976;18.216;2023-02-13T20:28:48;43.90;;;31.70;;
57313;SDS011;53202;50.976;18.216;2023-02-13T20:38:42;54.00;;;31.10;;
57313;SDS011;53202;50.976;18.216;2023-02-13T20:48:27;45.40;;;29.20;;
57313;SDS011;53202;50.976;18.216;2023-02-13T20:58:15;44.60;;;27.20;;
57313;SDS011;53202;50.976;18.216;2023-02-13T21:07:58;48.10;;;24.00;;
57313;SDS011;53202;50.976;18.216;2023-02-13T21:17:43;39.90;;;23.70;;
57313;SDS011;53202;50.976;18.216;2023-02-13T21:27:27;41.10;;;16.80;;
57313;SDS011;53202;50.976;18.216;2023-02-13T21:37:10;47.20;;;23.50;;
57313;SDS011;53202;50.976;18.216;2023-02-13T21:46:54;38.90;;;18.50;;
57313;SDS011;53202;50.976;18.216;2023-02-13T21:56:39;35.20;;;23.40;;
57313;SDS011;53202;50.976;18.216;2023-02-13T22:06:26;41.30;;;21.40;;
57313;SDS011;53202;50.976;18.216;2023-02-13T22:16:16;35.30;;;25.90;;
57313;SDS011;53202;50.976;18.216;2023-02-13T22:26:01;39.00;;;24.30;;
57313;SDS011;53202;50.976;18.216;2023-02-13T22:35:46;45.90;;;16.40;;
57313;SDS011;53202;50.976;18.216;2023-02-13T22:45:33;21.90;;;15.90;;
57313;SDS011;53202;50.976;18.216;2023-02-13T22:55:17;30.60;;;18.60;;
57313;SDS011;53202;50.976;18.216;2023-02-13T23:05:03;37.90;;;22.00;;
57313;SDS011;53202;50.976;18.216;2023-02-13T23:15:00;29.70;;;19.30;;
57313;SDS011;53202;50.976;18.216;2023-02-13T23:25:02;34.10;;;23.50;;
57313;SDS011;53202;50.976;18.216;2023-02-13T23:32:23;48.90;;;30.20;;
57313;SDS011;53202;50.976;18.216;2023-02-13T23:42:07;49.90;;;25.30;;
57313;SDS011;53202;50.976;18.216;2023-02-13T23:51:51;37.60;;;18.50;;
